Time;durP1;ratioP1;P1;durP2;ratioP2;P2;SDS_P1;SDS_P2;PMS_P1;PMS_P2;Temp;Humidity;BMP_temperature;BMP_pressure;BME280_temperature;BME280_humidity;BME280_pressure;Samples;Min_cycle;Max_cycle;Signal;HPM_P1;HPM_P2
2020/12/20 00:00:46;;;;;;;19.80;14.98;;;5.80;99.90;;;;;;5067265;28;20203;-49
2020/12/20 00:03:12;;;;;;;19.27;15.70;;;5.80;99.90;;;;;;5056381;28;20362;-50
2020/12/20 00:05:39;;;;;;;20.27;16.17;;;5.80;99.90;;;;;;5071821;28;20245;-49
2020/12/20 00:08:05;;;;;;;20.30;15.65;;;5.80;99.90;;;;;;5071999;28;20211;-50
2020/12/20 00:10:32;;;;;;;18.10;14.52;;;5.80;99.90;;;;;;5065715;28;20579;-49
2020/12/20 00:12:59;;;;;;;18.13;15.55;;;5.50;99.90;;;;;;5054419;28;20204;-50
2020/12/20 00:15:26;;;;;;;20.45;15.27;;;5.70;99.90;;;;;;5054902;28;20240;-50
2020/12/20 00:17:53;;;;;;;19.38;14.35;;;5.60;99.90;;;;;;5054735;28;20192;-50
2020/12/20 00:20:20;;;;;;;20.40;15.45;;;5.60;99.90;;;;;;5055272;28;20299;-49
2020/12/20 00:22:47;;;;;;;19.95;15.77;;;5.30;99.90;;;;;;5053707;28;20196;-50
2020/12/20 00:25:14;;;;;;;17.77;14.70;;;5.30;99.90;;;;;;5074658;28;20643;-50
2020/12/20 00:27:41;;;;;;;17.65;15.10;;;5.80;99.90;;;;;;5074586;28;20690;-50
2020/12/20 00:30:09;;;;;;;20.48;15.65;;;4.90;99.90;;;;;;5074722;28;20211;-49
2020/12/20 00:32:36;;;;;;;19.20;14.90;;;5.30;99.90;;;;;;5074547;28;20619;-49
2020/12/20 00:35:04;;;;;;;21.05;15.65;;;5.40;99.90;;;;;;5074642;28;20244;-49
2020/12/20 00:37:30;;;;;;;20.92;15.20;;;5.20;99.90;;;;;;5074438;28;20187;-50
2020/12/20 00:39:57;;;;;;;20.73;14.95;;;5.50;99.90;;;;;;5074385;28;20211;-49
2020/12/20 00:42:24;;;;;;;18.40;15.35;;;5.50;99.90;;;;;;5073979;28;20191;-50
2020/12/20 00:44:50;;;;;;;20.10;14.40;;;5.40;99.90;;;;;;5074611;28;20200;-49
2020/12/20 00:47:18;;;;;;;19.67;15.15;;;5.50;99.90;;;;;;5074208;28;20281;-49
2020/12/20 00:49:45;;;;;;;17.70;15.00;;;5.30;99.90;;;;;;5074177;28;20222;-49
2020/12/20 00:52:12;;;;;;;21.17;14.80;;;5.00;99.90;;;;;;5074298;28;20223;-49
2020/12/20 00:54:39;;;;;;;20.90;15.57;;;5.30;99.90;;;;;;5069921;28;20207;-49
2020/12/20 00:57:08;;;;;;;18.13;15.68;;;5.10;99.90;;;;;;5072900;28;20203;-49
2020/12/20 00:59:36;;;;;;;18.63;15.32;;;5.20;99.90;;;;;;5072994;28;20292;-49
2020/12/20 01:02:03;;;;;;;19.85;15.30;;;5.00;99.90;;;;;;5058350;28;20204;-49
2020/12/20 01:04:32;;;;;;;18.08;15.38;;;5.40;99.90;;;;;;5054128;28;20204;-49
2020/12/20 01:06:59;;;;;;;18.40;14.20;;;5.30;99.90;;;;;;5054203;28;20216;-50
2020/12/20 01:09:28;;;;;;;20.02;15.60;;;5.30;99.90;;;;;;5052646;28;20223;-49
2020/12/20 01:11:57;;;;;;;19.95;15.77;;;5.20;99.90;;;;;;5054007;28;20200;-50
2020/12/20 01:14:31;;;;;;;19.52;15.73;;;5.40;99.90;;;;;;5052336;28;20203;-49
2020/12/20 01:17:04;;;;;;;20.02;14.90;;;5.40;99.90;;;;;;5052586;28;20330;-49
2020/12/20 01:19:32;;;;;;;18.00;15.52;;;5.20;99.90;;;;;;5051562;28;20716;-50
2020/12/20 01:22:00;;;;;;;19.70;15.90;;;5.30;99.90;;;;;;5053638;28;20271;-49
2020/12/20 01:24:27;;;;;;;17.92;14.27;;;4.70;99.90;;;;;;5065638;28;20207;-50
2020/12/20 01:26:53;;;;;;;20.63;15.75;;;5.40;99.90;;;;;;5072253;28;20195;-49
2020/12/20 01:29:20;;;;;;;18.92;15.13;;;5.20;99.90;;;;;;5072121;28;20231;-49
2020/12/20 01:31:49;;;;;;;19.23;15.05;;;5.30;99.90;;;;;;5072414;28;20204;-50
2020/12/20 01:34:21;;;;;;;20.77;15.90;;;5.40;99.90;;;;;;5072035;28;20208;-49
2020/12/20 01:36:48;;;;;;;20.75;15.63;;;5.10;99.90;;;;;;5072408;28;20317;-49
2020/12/20 01:39:17;;;;;;;18.05;14.20;;;5.20;99.90;;;;;;5071934;28;20226;-49
2020/12/20 01:41:44;;;;;;;19.23;15.43;;;5.00;99.90;;;;;;5072092;28;20199;-49
2020/12/20 01:44:16;;;;;;;20.50;15.05;;;5.50;99.90;;;;;;5071547;28;20249;-49
2020/12/20 01:46:49;;;;;;;18.98;14.80;;;5.40;99.90;;;;;;5071690;28;20250;-49
2020/12/20 01:49:18;;;;;;;18.80;14.68;;;5.40;99.90;;;;;;5071747;28;20703;-49
2020/12/20 01:51:47;;;;;;;21.08;16.63;;;5.00;99.90;;;;;;5073207;28;20675;-49
2020/12/20 01:54:15;;;;;;;20.35;16.40;;;5.20;99.90;;;;;;5067727;28;20203;-50
2020/12/20 01:56:52;;;;;;;19.77;16.90;;;5.50;99.90;;;;;;5071964;28;20695;-49
2020/12/20 01:59:26;;;;;;;22.50;16.13;;;5.00;99.90;;;;;;5071558;28;20247;-50
2020/12/20 02:01:59;;;;;;;20.73;15.57;;;5.20;99.90;;;;;;5057312;28;20200;-49
2020/12/20 02:04:48;;;;;;;21.23;16.52;;;5.00;99.90;;;;;;5051472;28;20294;-49
2020/12/20 02:07:16;;;;;;;18.00;15.45;;;5.40;99.90;;;;;;5051396;28;20204;-49
2020/12/20 02:09:45;;;;;;;19.83;16.50;;;5.20;99.90;;;;;;5051564;28;20630;-50
2020/12/20 02:12:13;;;;;;;19.75;16.08;;;5.20;99.90;;;;;;5051339;28;20287;-50
2020/12/20 02:14:59;;;;;;;20.40;15.82;;;5.10;99.90;;;;;;5052546;28;20207;-50
2020/12/20 02:17:26;;;;;;;22.65;15.60;;;5.10;99.90;;;;;;5051430;28;20210;-50
2020/12/20 02:19:53;;;;;;;20.15;15.70;;;5.30;99.90;;;;;;5051298;28;20653;-50
2020/12/20 02:22:36;;;;;;;20.58;16.10;;;4.90;99.90;;;;;;5052846;28;20298;-50
2020/12/20 02:25:03;;;;;;;21.02;16.02;;;5.20;99.90;;;;;;5071259;28;20195;-50
2020/12/20 02:27:52;;;;;;;19.60;15.85;;;5.10;99.90;;;;;;5071051;28;20211;-50
2020/12/20 02:30:22;;;;;;;20.38;17.02;;;5.20;99.90;;;;;;5071186;28;20210;-50
2020/12/20 02:32:49;;;;;;;20.58;15.70;;;5.10;99.90;;;;;;5070691;28;20199;-49
2020/12/20 02:35:16;;;;;;;18.65;15.85;;;5.10;99.90;;;;;;5071081;28;20720;-49
2020/12/20 02:37:43;;;;;;;21.65;16.25;;;5.40;99.90;;;;;;5072369;28;20191;-49
2020/12/20 02:40:10;;;;;;;19.63;15.88;;;5.20;99.90;;;;;;5070867;28;20234;-50
2020/12/20 02:42:43;;;;;;;21.65;16.75;;;5.10;99.90;;;;;;5070775;28;20222;-49
2020/12/20 02:45:10;;;;;;;20.60;16.73;;;5.30;99.90;;;;;;5072228;28;20563;-50
2020/12/20 02:47:39;;;;;;;24.60;16.50;;;5.50;99.90;;;;;;5072416;28;20243;-49
2020/12/20 02:50:12;;;;;;;20.50;15.77;;;5.20;99.90;;;;;;5072291;28;20662;-49
2020/12/20 02:52:41;;;;;;;20.20;17.35;;;5.30;99.90;;;;;;5068295;28;20203;-49
2020/12/20 02:55:09;;;;;;;23.35;18.55;;;5.40;99.90;;;;;;5085832;28;20248;-49
2020/12/20 02:57:42;;;;;;;21.27;16.65;;;5.50;99.90;;;;;;5070794;28;20203;-50
2020/12/20 03:00:20;;;;;;;24.00;17.05;;;5.20;99.90;;;;;;5071563;28;20269;-49
2020/12/20 03:02:48;;;;;;;22.02;17.08;;;5.40;99.90;;;;;;5050365;28;20208;-50
2020/12/20 03:05:17;;;;;;;23.40;16.42;;;5.00;99.90;;;;;;5052007;28;20195;-49
2020/12/20 03:07:44;;;;;;;20.98;16.55;;;5.00;99.90;;;;;;5050522;28;20617;-49
2020/12/20 03:10:14;;;;;;;21.85;16.90;;;5.00;99.90;;;;;;5047489;28;20278;-49
2020/12/20 03:12:40;;;;;;;21.23;17.15;;;5.40;99.90;;;;;;5030302;28;20677;-48
2020/12/20 03:15:08;;;;;;;21.75;17.13;;;5.50;99.90;;;;;;5030594;28;20209;-48
2020/12/20 03:17:35;;;;;;;21.15;16.85;;;5.40;99.90;;;;;;5030700;28;20251;-49
2020/12/20 03:20:03;;;;;;;20.45;15.88;;;5.40;99.90;;;;;;5030437;28;20312;-48
2020/12/20 03:22:29;;;;;;;19.45;16.33;;;5.20;99.90;;;;;;5037505;28;20199;-49
2020/12/20 03:25:15;;;;;;;20.83;16.83;;;5.20;99.90;;;;;;5071835;28;20678;-49
2020/12/20 03:27:59;;;;;;;22.65;17.10;;;5.20;99.90;;;;;;5070299;28;20590;-48
2020/12/20 03:30:45;;;;;;;20.95;16.27;;;5.40;99.90;;;;;;5070449;28;20576;-47
2020/12/20 03:33:37;;;;;;;21.27;16.90;;;5.50;99.90;;;;;;5070099;28;20618;-48
2020/12/20 03:36:32;;;;;;;22.55;17.38;;;5.40;99.90;;;;;;5066075;28;20204;-48
2020/12/20 03:39:02;;;;;;;21.50;16.63;;;5.60;99.90;;;;;;5070270;28;20218;-48
2020/12/20 03:41:29;;;;;;;22.60;17.25;;;5.30;99.90;;;;;;5069944;28;20203;-48
2020/12/20 03:43:56;;;;;;;21.10;17.95;;;5.30;99.90;;;;;;5072408;28;20203;-49
2020/12/20 03:46:23;;;;;;;21.85;16.63;;;5.20;99.90;;;;;;5073984;28;20207;-48
2020/12/20 03:48:52;;;;;;;20.40;16.13;;;5.30;99.90;;;;;;5073908;28;20317;-48
2020/12/20 03:51:21;;;;;;;21.48;16.83;;;5.30;99.90;;;;;;5074128;28;20571;-48
2020/12/20 03:53:51;;;;;;;22.50;18.30;;;5.20;99.90;;;;;;5069531;28;20211;-48
2020/12/20 03:56:18;;;;;;;22.75;18.83;;;5.20;99.90;;;;;;5074059;28;20740;-49
2020/12/20 03:58:55;;;;;;;24.85;19.02;;;5.40;99.90;;;;;;5074147;28;20230;-48
2020/12/20 04:01:23;;;;;;;23.35;18.75;;;4.90;99.90;;;;;;5064995;28;20208;-48
2020/12/20 04:03:50;;;;;;;22.58;17.05;;;5.30;99.90;;;;;;5053842;28;20208;-48
2020/12/20 04:06:19;;;;;;;22.33;17.45;;;5.40;99.90;;;;;;5053812;28;20200;-48
2020/12/20 04:08:46;;;;;;;21.83;16.95;;;5.30;99.90;;;;;;5053755;28;20314;-48
2020/12/20 04:11:42;;;;;;;21.55;17.20;;;5.50;99.90;;;;;;5031704;28;20209;-48
2020/12/20 04:14:11;;;;;;;20.17;16.40;;;5.40;99.90;;;;;;5033553;28;20209;-48
2020/12/20 04:16:39;;;;;;;18.85;16.13;;;5.40;99.90;;;;;;5033833;28;20209;-48
2020/12/20 04:19:06;;;;;;;23.80;19.40;;;5.40;99.90;;;;;;5033609;28;20251;-48
2020/12/20 04:21:37;;;;;;;22.60;17.17;;;5.30;99.90;;;;;;5033939;28;20201;-49
2020/12/20 04:24:09;;;;;;;23.20;18.27;;;5.30;99.90;;;;;;5051049;28;20695;-49
2020/12/20 04:26:36;;;;;;;21.77;17.52;;;5.60;99.90;;;;;;5073948;28;20214;-48
2020/12/20 04:29:14;;;;;;;21.88;17.23;;;5.30;99.90;;;;;;5074467;28;20283;-49
2020/12/20 04:31:45;;;;;;;22.00;17.10;;;5.40;99.90;;;;;;5073967;28;20575;-50
2020/12/20 04:34:16;;;;;;;20.67;17.05;;;5.20;99.90;;;;;;5073165;28;20218;-49
2020/12/20 04:36:42;;;;;;;23.05;18.90;;;5.30;99.90;;;;;;5073217;28;20203;-48
2020/12/20 04:39:32;;;;;;;20.70;16.52;;;5.60;99.90;;;;;;5071164;28;20258;-49
2020/12/20 04:42:00;;;;;;;19.35;16.92;;;5.50;99.90;;;;;;5074677;28;20207;-49
2020/12/20 04:44:28;;;;;;;22.77;17.27;;;5.50;99.90;;;;;;5072695;28;20195;-49
2020/12/20 04:47:02;;;;;;;24.23;18.42;;;5.30;99.90;;;;;;5074181;28;20665;-49
2020/12/20 04:49:36;;;;;;;20.98;16.95;;;5.30;99.90;;;;;;5072864;28;20227;-49
2020/12/20 04:52:09;;;;;;;21.13;16.50;;;5.40;99.90;;;;;;5070981;28;20191;-48
2020/12/20 04:54:40;;;;;;;23.67;17.73;;;5.50;99.90;;;;;;5070915;28;20207;-49
2020/12/20 04:57:12;;;;;;;23.23;18.52;;;5.20;99.90;;;;;;5068592;28;20380;-48
2020/12/20 04:59:43;;;;;;;21.85;17.23;;;5.00;99.90;;;;;;5072834;28;20229;-49
2020/12/20 05:02:13;;;;;;;21.65;18.45;;;5.40;99.90;;;;;;5056627;28;20649;-47
2020/12/20 05:04:40;;;;;;;22.42;18.38;;;5.20;99.90;;;;;;5052472;28;20206;-49
2020/12/20 05:07:11;;;;;;;24.95;19.75;;;5.10;99.90;;;;;;5053923;28;20250;-49
2020/12/20 05:09:50;;;;;;;26.70;20.10;;;5.20;99.90;;;;;;5048967;28;20386;-49
2020/12/20 05:12:27;;;;;;;23.23;18.55;;;4.90;99.90;;;;;;5032462;28;20205;-50
2020/12/20 05:14:57;;;;;;;22.23;19.08;;;4.90;99.90;;;;;;5033038;28;20255;-48
2020/12/20 05:17:27;;;;;;;24.35;20.38;;;5.00;99.90;;;;;;5032506;28;20665;-48
2020/12/20 05:20:34;;;;;;;26.02;19.35;;;4.90;99.90;;;;;;5032441;28;20298;-49
2020/12/20 05:23:01;;;;;;;24.88;20.33;;;4.90;99.90;;;;;;5039933;28;20563;-49
2020/12/20 05:25:29;;;;;;;23.98;18.77;;;5.00;99.90;;;;;;5072087;28;20209;-50
2020/12/20 05:28:08;;;;;;;22.10;18.27;;;5.10;99.90;;;;;;5073304;28;20257;-51
2020/12/20 05:30:40;;;;;;;21.65;17.92;;;5.00;99.90;;;;;;5072350;28;20206;-50
2020/12/20 05:33:29;;;;;;;23.05;18.90;;;5.40;99.90;;;;;;5069492;28;20587;-48
2020/12/20 05:36:26;;;;;;;23.50;19.35;;;5.00;99.90;;;;;;5069905;28;20203;-49
2020/12/20 05:39:15;;;;;;;23.58;19.02;;;5.10;99.90;;;;;;5074371;28;20226;-49
2020/12/20 05:41:45;;;;;;;25.73;19.27;;;4.80;99.90;;;;;;5072306;28;20203;-48
2020/12/20 05:44:17;;;;;;;25.75;20.45;;;5.30;99.90;;;;;;5071379;28;20290;-49
2020/12/20 05:46:47;;;;;;;23.63;18.40;;;4.90;99.90;;;;;;5071795;28;20199;-49
2020/12/20 05:49:19;;;;;;;25.75;19.92;;;5.10;99.90;;;;;;5071674;28;20604;-48
2020/12/20 05:52:03;;;;;;;25.70;18.92;;;5.10;99.90;;;;;;5071767;28;20207;-49
2020/12/20 05:54:34;;;;;;;26.40;20.90;;;5.10;99.90;;;;;;5068988;28;20195;-48
2020/12/20 05:57:14;;;;;;;23.20;18.35;;;5.00;99.90;;;;;;5072959;28;20195;-49
2020/12/20 05:59:42;;;;;;;22.85;18.65;;;5.30;99.90;;;;;;5072869;28;20222;-49
2020/12/20 06:02:10;;;;;;;25.25;20.30;;;4.90;99.90;;;;;;5057501;28;20203;-49
2020/12/20 06:04:38;;;;;;;23.10;18.33;;;4.90;99.90;;;;;;5052728;28;20188;-49
2020/12/20 06:07:07;;;;;;;25.35;19.83;;;5.00;99.90;;;;;;5052414;28;20192;-48
2020/12/20 06:09:45;;;;;;;28.73;19.13;;;4.80;99.90;;;;;;5052538;28;20262;-49
2020/12/20 06:12:17;;;;;;;23.42;18.10;;;5.00;99.90;;;;;;5051670;28;20586;-49
2020/12/20 06:14:45;;;;;;;22.27;19.00;;;4.80;99.90;;;;;;5052126;28;20204;-49
2020/12/20 06:17:16;;;;;;;24.10;18.70;;;4.60;99.90;;;;;;5052861;28;20192;-49
2020/12/20 06:19:59;;;;;;;25.88;20.33;;;5.00;99.90;;;;;;5052481;28;20270;-48
2020/12/20 06:22:28;;;;;;;24.83;19.45;;;4.70;99.90;;;;;;5051273;28;20290;-48
2020/12/20 06:24:57;;;;;;;25.50;20.67;;;5.00;99.90;;;;;;5060654;28;20203;-49
2020/12/20 06:27:25;;;;;;;25.10;18.88;;;4.80;99.90;;;;;;5072504;28;20632;-49
2020/12/20 06:29:54;;;;;;;29.35;22.20;;;5.00;99.90;;;;;;5072137;28;20242;-49
2020/12/20 06:32:29;;;;;;;27.63;20.55;;;4.80;99.90;;;;;;5071812;28;20191;-49
2020/12/20 06:34:58;;;;;;;29.88;22.10;;;4.70;99.90;;;;;;5072571;28;20202;-48
2020/12/20 06:37:26;;;;;;;27.45;20.58;;;4.70;99.90;;;;;;5072679;28;20503;-48
2020/12/20 06:39:52;;;;;;;24.67;19.70;;;4.80;99.90;;;;;;5072129;28;20215;-48
2020/12/20 06:42:39;;;;;;;23.50;18.85;;;4.70;99.90;;;;;;5071918;28;20733;-48
2020/12/20 06:45:17;;;;;;;25.00;20.40;;;4.70;99.90;;;;;;5072298;28;20233;-49
2020/12/20 06:47:46;;;;;;;29.25;21.42;;;4.80;99.90;;;;;;5070737;28;20198;-48
2020/12/20 06:50:13;;;;;;;27.75;20.23;;;4.10;99.90;;;;;;5072136;28;20306;-48
2020/12/20 06:52:48;;;;;;;28.13;20.27;;;4.70;99.90;;;;;;5071881;28;20199;-49
2020/12/20 06:55:15;;;;;;;27.80;21.25;;;4.60;99.90;;;;;;5068604;28;20199;-48
2020/12/20 06:58:16;;;;;;;27.73;20.90;;;4.70;99.90;;;;;;5072054;28;20225;-49
2020/12/20 07:00:45;;;;;;;27.92;21.85;;;4.50;99.90;;;;;;5066968;28;20195;-48
2020/12/20 07:03:40;;;;;;;27.90;21.10;;;4.50;99.90;;;;;;5051565;28;20216;-48
2020/12/20 07:06:15;;;;;;;28.20;21.02;;;4.70;99.90;;;;;;5052357;28;20625;-47
2020/12/20 07:08:42;;;;;;;27.23;20.35;;;4.50;99.90;;;;;;5051807;28;20223;-49
2020/12/20 07:11:20;;;;;;;30.55;22.80;;;4.60;99.90;;;;;;5047061;28;20204;-49
2020/12/20 07:13:47;;;;;;;28.38;22.10;;;4.80;99.90;;;;;;5032031;28;20203;-50
2020/12/20 07:16:16;;;;;;;25.88;21.55;;;4.20;99.90;;;;;;5032392;28;20262;-48
2020/12/20 07:18:54;;;;;;;29.08;22.40;;;4.80;99.90;;;;;;5031181;28;20232;-50
2020/12/20 07:22:02;;;;;;;28.25;20.95;;;4.80;99.90;;;;;;5031875;28;20192;-50
2020/12/20 07:24:31;;;;;;;30.10;22.10;;;4.70;99.90;;;;;;5042972;28;20668;-50
2020/12/20 07:27:00;;;;;;;29.80;22.20;;;4.70;99.90;;;;;;5051827;28;20196;-50
2020/12/20 07:29:28;;;;;;;26.75;21.45;;;4.80;99.90;;;;;;5051735;28;20269;-51
2020/12/20 07:31:57;;;;;;;30.77;22.30;;;4.70;99.90;;;;;;5051923;28;20274;-49
2020/12/20 07:34:25;;;;;;;28.98;21.73;;;4.70;99.90;;;;;;5051655;28;20196;-50
2020/12/20 07:36:52;;;;;;;31.38;22.55;;;4.90;99.90;;;;;;5051604;28;20732;-49
2020/12/20 07:39:19;;;;;;;30.73;22.75;;;4.80;99.90;;;;;;5052250;28;20235;-50
2020/12/20 07:41:46;;;;;;;27.88;21.15;;;4.70;99.90;;;;;;5051977;28;20665;-50
2020/12/20 07:44:13;;;;;;;28.25;21.25;;;4.80;99.90;;;;;;5051538;28;20566;-50
2020/12/20 07:46:40;;;;;;;25.25;20.35;;;5.00;99.90;;;;;;5051547;28;20643;-50
2020/12/20 07:49:08;;;;;;;29.67;22.20;;;4.80;99.90;;;;;;5051540;28;20216;-50
2020/12/20 07:51:36;;;;;;;31.17;23.17;;;4.60;99.90;;;;;;5051372;28;20196;-50
2020/12/20 07:54:07;;;;;;;29.48;22.35;;;4.60;99.90;;;;;;5050218;28;20617;-50
2020/12/20 07:56:35;;;;;;;31.55;23.50;;;4.70;99.90;;;;;;5071756;28;20206;-50
2020/12/20 07:59:05;;;;;;;30.58;22.17;;;4.90;99.90;;;;;;5071262;28;20718;-50
2020/12/20 08:01:32;;;;;;;31.80;23.70;;;4.60;99.90;;;;;;5061441;28;20196;-50
2020/12/20 08:04:07;;;;;;;28.48;21.73;;;4.70;99.90;;;;;;5050795;28;20582;-50
2020/12/20 08:06:39;;;;;;;29.02;22.45;;;4.90;99.90;;;;;;5051284;28;20191;-50
2020/12/20 08:09:09;;;;;;;32.03;23.65;;;5.00;99.90;;;;;;5050816;28;20219;-51
2020/12/20 08:11:36;;;;;;;30.40;21.80;;;4.70;99.90;;;;;;5051298;28;20204;-49
2020/12/20 08:14:04;;;;;;;28.30;21.92;;;4.90;99.90;;;;;;5050916;28;20250;-50
2020/12/20 08:16:32;;;;;;;32.47;23.20;;;5.00;99.90;;;;;;5051195;28;20192;-51
2020/12/20 08:19:05;;;;;;;27.83;21.70;;;4.90;99.90;;;;;;5050950;28;20212;-50
2020/12/20 08:21:55;;;;;;;28.55;20.50;;;4.90;99.90;;;;;;5049741;28;20412;-50
2020/12/20 08:24:27;;;;;;;31.25;22.35;;;4.90;99.90;;;;;;5060235;28;20207;-51
2020/12/20 08:26:54;;;;;;;29.55;21.80;;;4.20;99.90;;;;;;5071573;28;20195;-50
2020/12/20 08:29:20;;;;;;;28.20;22.50;;;4.80;99.90;;;;;;5072924;28;20625;-50
2020/12/20 08:31:47;;;;;;;32.63;22.85;;;4.90;99.90;;;;;;5075191;28;20552;-50
2020/12/20 08:34:19;;;;;;;28.33;22.45;;;4.80;99.90;;;;;;5073300;28;20219;-50
2020/12/20 08:36:48;;;;;;;31.17;22.83;;;4.80;99.90;;;;;;5074634;28;20664;-50
2020/12/20 08:39:15;;;;;;;30.20;22.02;;;4.80;99.90;;;;;;5074542;28;20268;-51
2020/12/20 08:41:42;;;;;;;25.58;20.58;;;4.90;99.90;;;;;;5072950;28;20192;-51
2020/12/20 08:44:11;;;;;;;28.83;21.52;;;5.20;99.90;;;;;;5074230;28;20288;-49
2020/12/20 08:46:39;;;;;;;28.50;22.15;;;5.10;99.90;;;;;;5074382;28;20215;-51
2020/12/20 08:49:20;;;;;;;28.48;20.48;;;5.00;99.90;;;;;;5074065;28;20355;-50
2020/12/20 08:51:48;;;;;;;27.75;22.48;;;4.90;99.90;;;;;;5074199;28;20191;-50
2020/12/20 08:54:24;;;;;;;29.77;21.05;;;4.80;99.90;;;;;;5071792;28;20264;-49
2020/12/20 08:56:59;;;;;;;27.67;21.52;;;5.00;99.90;;;;;;5074428;28;20691;-50
2020/12/20 08:59:36;;;;;;;27.30;19.85;;;5.20;99.90;;;;;;5073165;28;20214;-51
2020/12/20 09:02:04;;;;;;;28.00;22.15;;;5.20;99.90;;;;;;5059988;28;20575;-50
2020/12/20 09:04:33;;;;;;;25.48;19.85;;;5.20;99.90;;;;;;5054412;28;20660;-50
2020/12/20 09:07:01;;;;;;;25.52;19.63;;;5.30;99.90;;;;;;5054207;28;20220;-50
2020/12/20 09:09:28;;;;;;;23.95;19.63;;;5.50;99.90;;;;;;5053926;28;20223;-50
2020/12/20 09:11:54;;;;;;;27.50;21.17;;;5.20;99.90;;;;;;5054002;28;20200;-50
2020/12/20 09:14:22;;;;;;;27.67;20.50;;;4.60;99.90;;;;;;5053535;28;20203;-50
2020/12/20 09:16:48;;;;;;;28.38;21.15;;;5.20;99.90;;;;;;5053765;28;20210;-48
2020/12/20 09:19:15;;;;;;;24.58;19.55;;;5.20;99.90;;;;;;5054142;28;20227;-50
2020/12/20 09:21:48;;;;;;;22.45;18.70;;;5.50;99.90;;;;;;5052987;28;20723;-50
2020/12/20 09:24:15;;;;;;;27.13;20.55;;;5.30;99.90;;;;;;5073385;28;20215;-51
2020/12/20 09:26:41;;;;;;;28.73;21.10;;;5.70;99.90;;;;;;5073377;28;20195;-50
2020/12/20 09:29:08;;;;;;;25.02;19.13;;;5.30;99.90;;;;;;5071931;28;20711;-51
2020/12/20 09:31:35;;;;;;;27.58;19.88;;;5.60;99.90;;;;;;5073204;28;20199;-51
2020/12/20 09:34:03;;;;;;;28.40;21.67;;;5.70;99.90;;;;;;5073135;28;20668;-51
2020/12/20 09:36:31;;;;;;;29.35;21.80;;;5.30;99.90;;;;;;5074165;28;20250;-50
2020/12/20 09:39:01;;;;;;;26.65;19.65;;;5.50;99.90;;;;;;5073691;28;20280;-51
2020/12/20 09:41:29;;;;;;;25.63;20.20;;;5.50;99.90;;;;;;5073043;28;20711;-51
2020/12/20 09:43:57;;;;;;;26.63;19.60;;;5.70;99.90;;;;;;5071725;28;20200;-51
2020/12/20 09:46:25;;;;;;;27.23;22.02;;;5.50;99.90;;;;;;5073109;28;20234;-51
2020/12/20 09:48:53;;;;;;;24.30;18.55;;;5.50;99.90;;;;;;5073266;28;20265;-50
2020/12/20 09:51:21;;;;;;;26.60;19.33;;;5.60;99.90;;;;;;5068957;28;20203;-50
2020/12/20 09:53:48;;;;;;;25.17;19.13;;;5.70;99.90;;;;;;5072318;28;20230;-51
2020/12/20 09:56:15;;;;;;;26.17;18.67;;;5.80;99.90;;;;;;5072685;28;20199;-50
2020/12/20 09:58:42;;;;;;;22.35;17.05;;;5.90;99.90;;;;;;5072992;28;20668;-48
2020/12/20 10:01:15;;;;;;;26.23;19.25;;;5.70;99.90;;;;;;5064182;28;20207;-49
2020/12/20 10:03:42;;;;;;;24.95;19.00;;;5.70;99.90;;;;;;5052317;28;20192;-49
2020/12/20 10:06:09;;;;;;;27.15;17.77;;;6.00;99.90;;;;;;5053134;28;20196;-49
2020/12/20 10:08:36;;;;;;;24.25;17.85;;;5.40;99.90;;;;;;5053815;28;20754;-48
2020/12/20 10:11:03;;;;;;;23.45;19.02;;;5.70;99.90;;;;;;5054020;28;20254;-49
2020/12/20 10:13:29;;;;;;;23.23;18.80;;;6.00;99.90;;;;;;5052480;28;20200;-48
2020/12/20 10:15:56;;;;;;;21.23;18.58;;;6.10;99.90;;;;;;5052886;28;20254;-48
2020/12/20 10:18:23;;;;;;;23.55;17.65;;;6.00;99.90;;;;;;5052060;28;20212;-50
2020/12/20 10:20:49;;;;;;;24.70;17.87;;;5.70;99.90;;;;;;5069763;28;20210;-48
2020/12/20 10:23:17;;;;;;;24.40;18.95;;;6.20;99.90;;;;;;5072200;28;20418;-48
2020/12/20 10:25:43;;;;;;;27.30;18.85;;;6.30;99.90;;;;;;5072447;28;20204;-48
2020/12/20 10:28:10;;;;;;;20.30;16.35;;;6.20;99.90;;;;;;5072234;28;20195;-50
2020/12/20 10:30:37;;;;;;;22.83;17.73;;;6.10;99.90;;;;;;5072265;28;20719;-48
2020/12/20 10:33:03;;;;;;;23.00;18.40;;;6.10;99.90;;;;;;5071788;28;20188;-49
2020/12/20 10:35:30;;;;;;;20.40;15.20;;;6.10;99.90;;;;;;5072119;28;20422;-50
2020/12/20 10:37:58;;;;;;;21.30;16.95;;;6.30;99.90;;;;;;5071831;28;20426;-50
2020/12/20 10:40:26;;;;;;;20.17;16.23;;;6.30;99.90;;;;;;5073217;28;20560;-49
2020/12/20 10:42:53;;;;;;;21.27;16.90;;;6.60;99.90;;;;;;5071572;28;20778;-48
2020/12/20 10:45:21;;;;;;;20.02;15.05;;;6.60;99.90;;;;;;5071954;28;20203;-49
2020/12/20 10:47:47;;;;;;;20.63;16.75;;;6.70;99.90;;;;;;5066911;28;20191;-50
2020/12/20 10:50:15;;;;;;;17.95;15.07;;;6.70;99.90;;;;;;5070777;28;20232;-49
2020/12/20 10:52:42;;;;;;;20.27;15.77;;;6.60;99.90;;;;;;5070249;28;20243;-49
2020/12/20 10:55:08;;;;;;;20.13;14.98;;;6.20;99.90;;;;;;5071644;28;20655;-50
2020/12/20 10:57:36;;;;;;;18.70;14.63;;;6.80;99.90;;;;;;5071917;28;20191;-49
2020/12/20 11:00:04;;;;;;;21.23;15.80;;;6.70;99.90;;;;;;5072079;28;20468;-49
2020/12/20 11:02:31;;;;;;;17.17;14.10;;;6.70;99.90;;;;;;5053710;28;20454;-49
2020/12/20 11:04:57;;;;;;;18.50;14.23;;;6.80;99.90;;;;;;5051773;28;20445;-48
2020/12/20 11:07:24;;;;;;;18.00;14.83;;;6.80;99.90;;;;;;5051437;28;20439;-50
2020/12/20 11:09:50;;;;;;;19.77;15.47;;;6.70;99.90;;;;;;5051116;28;20586;-48
2020/12/20 11:12:17;;;;;;;17.80;14.63;;;6.80;99.90;;;;;;5052378;28;20429;-48
2020/12/20 11:14:45;;;;;;;17.30;13.57;;;6.60;99.90;;;;;;5052302;28;20466;-49
2020/12/20 11:17:12;;;;;;;18.63;14.53;;;6.70;99.90;;;;;;5062990;28;20454;-48
2020/12/20 11:19:38;;;;;;;21.60;15.10;;;6.80;99.90;;;;;;5071596;28;20460;-49
2020/12/20 11:22:05;;;;;;;19.03;13.77;;;6.80;99.90;;;;;;5071619;28;20430;-49
2020/12/20 11:24:31;;;;;;;16.67;14.00;;;7.00;99.90;;;;;;5071805;28;20435;-49
2020/12/20 11:26:58;;;;;;;17.53;13.60;;;6.80;99.90;;;;;;5071808;28;20667;-49
2020/12/20 11:29:24;;;;;;;19.27;15.77;;;6.30;99.90;;;;;;5071568;28;20476;-49
2020/12/20 11:31:52;;;;;;;19.87;15.63;;;6.70;99.90;;;;;;5071544;28;20442;-49
2020/12/20 11:34:22;;;;;;;16.70;13.60;;;6.90;99.90;;;;;;5071638;28;20446;-50
2020/12/20 11:36:49;;;;;;;19.20;13.23;;;6.90;99.90;;;;;;5071613;28;20981;-48
2020/12/20 11:39:16;;;;;;;17.93;14.60;;;6.90;99.90;;;;;;5071504;28;20841;-49
2020/12/20 11:41:43;;;;;;;16.33;13.20;;;6.90;99.90;;;;;;5071119;28;20450;-49
2020/12/20 11:44:09;;;;;;;17.20;14.47;;;6.90;99.90;;;;;;5066894;28;20482;-49
2020/12/20 11:46:37;;;;;;;18.17;13.63;;;7.10;99.90;;;;;;5071239;28;20437;-50
2020/12/20 11:49:04;;;;;;;19.20;14.03;;;6.90;99.90;;;;;;5072406;28;20478;-49
2020/12/20 11:51:31;;;;;;;18.33;13.93;;;6.70;99.90;;;;;;5069901;28;20570;-49
2020/12/20 11:53:59;;;;;;;18.70;15.50;;;6.90;99.90;;;;;;5071224;28;20513;-50
2020/12/20 11:56:26;;;;;;;17.43;12.90;;;7.00;99.90;;;;;;5071120;28;20438;-49
2020/12/20 11:58:52;;;;;;;16.83;13.10;;;7.10;99.90;;;;;;5071168;28;20946;-50
2020/12/20 12:01:23;;;;;;;17.63;13.30;;;7.00;99.90;;;;;;5062755;28;20442;-52
2020/12/20 12:03:50;;;;;;;18.67;12.87;;;6.90;99.90;;;;;;5051784;28;20435;-52
2020/12/20 12:06:18;;;;;;;16.03;13.70;;;7.10;99.90;;;;;;5054858;28;20427;-52
2020/12/20 12:08:45;;;;;;;18.70;13.17;;;7.20;99.90;;;;;;5054604;28;20478;-50
2020/12/20 12:11:17;;;;;;;16.13;12.53;;;7.10;99.90;;;;;;5054937;28;20450;-50
2020/12/20 12:13:43;;;;;;;15.90;12.97;;;6.90;99.90;;;;;;5063782;28;20466;-49
2020/12/20 12:16:10;;;;;;;16.30;12.87;;;7.10;99.90;;;;;;5075981;28;20450;-50
2020/12/20 12:18:36;;;;;;;17.70;13.90;;;7.30;99.90;;;;;;5074792;28;20939;-50
2020/12/20 12:21:03;;;;;;;15.47;13.17;;;7.20;99.90;;;;;;5074734;28;20434;-51
2020/12/20 12:23:30;;;;;;;17.20;13.67;;;7.30;99.90;;;;;;5074768;28;20435;-51
2020/12/20 12:25:57;;;;;;;17.77;13.87;;;7.40;99.90;;;;;;5074630;28;20432;-50
2020/12/20 12:28:23;;;;;;;15.17;12.33;;;7.50;99.90;;;;;;5074812;28;20459;-51
2020/12/20 12:30:50;;;;;;;16.17;12.90;;;7.20;99.90;;;;;;5075401;28;20442;-50
2020/12/20 12:33:17;;;;;;;16.70;13.50;;;7.30;99.90;;;;;;5074731;28;20488;-50
2020/12/20 12:35:43;;;;;;;16.40;13.63;;;8.00;99.90;;;;;;5075556;28;20431;-50
2020/12/20 12:38:10;;;;;;;14.90;12.50;;;7.60;99.90;;;;;;5075149;28;20426;-50
2020/12/20 12:40:37;;;;;;;15.77;12.10;;;7.50;99.90;;;;;;5074483;28;20439;-49
2020/12/20 12:43:04;;;;;;;14.77;13.10;;;7.70;99.90;;;;;;5071246;28;20455;-51
2020/12/20 12:45:31;;;;;;;15.67;13.80;;;7.70;99.90;;;;;;5075306;28;20489;-50
2020/12/20 12:47:57;;;;;;;17.00;13.20;;;7.70;99.90;;;;;;5074615;28;20435;-51
2020/12/20 12:50:24;;;;;;;16.90;13.70;;;7.70;99.90;;;;;;5074738;28;20490;-51